createdAt,value
2018-12-05T00:00:53.599Z,0.00
2018-12-05T00:01:53.615Z,0.00
2018-12-05T00:02:53.631Z,0.00
2018-12-05T00:03:53.641Z,0.00
2018-12-05T00:04:53.659Z,0.00
2018-12-05T00:05:53.672Z,0.00
2018-12-05T00:06:53.683Z,0.00
2018-12-05T00:07:53.701Z,0.00
2018-12-05T00:08:53.711Z,0.00
2018-12-05T00:09:53.728Z,0.00
2018-12-05T00:10:53.739Z,0.00
2018-12-05T00:11:53.752Z,0.00
2018-12-05T00:12:53.766Z,0.00
2018-12-05T00:13:53.782Z,0.00
2018-12-05T00:14:53.799Z,0.00
2018-12-05T00:15:53.807Z,0.00
2018-12-05T00:16:53.826Z,0.00
2018-12-05T00:17:53.841Z,0.00
2018-12-05T00:18:53.850Z,0.00
2018-12-05T00:19:53.863Z,0.00
2018-12-05T00:20:53.878Z,0.00
2018-12-05T00:21:53.895Z,0.00
2018-12-05T00:22:53.905Z,0.00
2018-12-05T00:23:53.928Z,0.00
2018-12-05T00:24:53.936Z,0.00
2018-12-05T00:25:53.951Z,0.00
2018-12-05T00:26:53.967Z,0.00
2018-12-05T00:27:53.979Z,0.00
2018-12-05T00:28:53.989Z,0.00
2018-12-05T00:29:54.005Z,0.00
2018-12-05T00:30:54.017Z,0.00
2018-12-05T00:31:54.033Z,0.00
2018-12-05T00:32:54.047Z,0.00
2018-12-05T00:33:54.058Z,0.00
2018-12-05T00:34:54.073Z,0.00
2018-12-05T00:35:54.085Z,0.00
2018-12-05T00:36:54.106Z,0.00
2018-12-05T00:37:54.116Z,0.00
2018-12-05T00:38:54.131Z,0.00
2018-12-05T00:39:54.147Z,0.00
2018-12-05T00:40:54.155Z,0.00
2018-12-05T00:41:54.169Z,0.00
2018-12-05T00:42:54.184Z,0.00
2018-12-05T00:43:54.197Z,0.00
2018-12-05T00:44:54.211Z,0.00
2018-12-05T00:45:54.228Z,0.00
2018-12-05T00:46:54.239Z,0.00
2018-12-05T00:47:54.255Z,0.00
2018-12-05T00:48:54.268Z,0.00
2018-12-05T00:49:54.285Z,0.00
2018-12-05T00:50:54.298Z,0.00
2018-12-05T00:51:54.308Z,0.00
2018-12-05T00:52:54.322Z,0.00
2018-12-05T00:53:54.337Z,0.00
2018-12-05T00:54:54.353Z,0.00
2018-12-05T00:55:54.364Z,0.00
2018-12-05T00:56:54.377Z,0.00
2018-12-05T00:57:54.394Z,0.00
2018-12-05T00:58:54.409Z,0.00
2018-12-05T00:59:54.419Z,0.00
2018-12-05T01:00:54.436Z,0.00
2018-12-05T01:01:54.447Z,0.00
2018-12-05T01:02:54.464Z,0.00
2018-12-05T01:03:54.475Z,0.00
2018-12-05T01:04:54.491Z,0.00
2018-12-05T01:05:54.506Z,0.00
2018-12-05T01:06:54.522Z,0.00
2018-12-05T01:07:54.532Z,0.00
2018-12-05T01:08:54.548Z,0.00
2018-12-05T01:09:54.563Z,0.00
2018-12-05T01:10:54.574Z,0.00
2018-12-05T01:11:54.588Z,0.00
2018-12-05T01:12:54.603Z,0.00
2018-12-05T01:13:54.616Z,0.00
2018-12-05T01:14:54.632Z,0.00
2018-12-05T01:15:54.645Z,0.00
2018-12-05T01:16:54.658Z,0.00
2018-12-05T01:17:54.672Z,0.00
2018-12-05T01:18:54.688Z,0.00
2018-12-05T01:19:54.701Z,0.00
2018-12-05T01:20:54.723Z,0.00
2018-12-05T01:21:54.730Z,0.00
2018-12-05T01:22:54.746Z,0.00
2018-12-05T01:23:54.756Z,0.00
2018-12-05T01:24:54.770Z,0.00
2018-12-05T01:25:54.786Z,0.00
2018-12-05T01:26:54.800Z,0.00
2018-12-05T01:27:54.816Z,0.00
2018-12-05T01:28:54.829Z,0.00
2018-12-05T01:29:54.843Z,0.00
2018-12-05T01:30:54.859Z,0.00
2018-12-05T01:31:54.869Z,0.00
2018-12-05T01:32:54.883Z,0.00
2018-12-05T01:33:54.897Z,0.00
2018-12-05T01:34:54.911Z,0.00
2018-12-05T01:35:54.928Z,0.00
2018-12-05T01:36:54.941Z,0.00
2018-12-05T01:37:54.954Z,0.00
2018-12-05T01:38:54.970Z,0.00
2018-12-05T01:39:54.984Z,0.00
2018-12-05T01:40:54.998Z,0.00
2018-12-05T01:41:55.011Z,0.00
2018-12-05T01:42:55.026Z,0.00
2018-12-05T01:43:55.038Z,0.00
2018-12-05T01:44:55.054Z,0.00
2018-12-05T01:45:55.067Z,0.00
2018-12-05T01:46:55.083Z,0.00
2018-12-05T01:47:55.097Z,0.00
2018-12-05T01:48:55.110Z,0.00
2018-12-05T01:49:55.123Z,0.00
2018-12-05T01:50:55.136Z,0.00
2018-12-05T01:51:55.150Z,0.00
2018-12-05T01:52:55.164Z,0.00
2018-12-05T01:53:55.178Z,0.00
2018-12-05T01:54:55.195Z,0.00
2018-12-05T01:55:55.209Z,0.00
2018-12-05T01:56:55.222Z,0.00
2018-12-05T01:57:55.234Z,0.00
2018-12-05T01:58:55.451Z,0.00
2018-12-05T01:59:55.264Z,0.00
2018-12-05T02:00:55.276Z,0.00
2018-12-05T02:01:55.293Z,0.00
2018-12-05T02:02:55.304Z,0.00
2018-12-05T02:03:55.320Z,0.00
2018-12-05T02:04:55.335Z,0.00
2018-12-05T02:05:55.348Z,0.00
2018-12-05T02:06:55.364Z,0.00
2018-12-05T02:07:55.377Z,0.00
2018-12-05T02:08:55.389Z,0.00
2018-12-05T02:09:55.403Z,0.00
2018-12-05T02:10:55.420Z,0.00
2018-12-05T02:11:55.430Z,0.00
2018-12-05T02:12:55.445Z,0.00
2018-12-05T02:13:55.460Z,0.00
2018-12-05T02:14:55.476Z,0.00
2018-12-05T02:15:55.487Z,0.00
2018-12-05T02:16:55.501Z,0.00
2018-12-05T02:17:55.517Z,0.00
2018-12-05T02:18:55.528Z,0.00
2018-12-05T02:19:55.545Z,0.00
2018-12-05T02:20:55.556Z,0.00
2018-12-05T02:21:55.571Z,0.00
2018-12-05T02:22:55.587Z,0.00
2018-12-05T02:23:55.603Z,0.00
2018-12-05T02:24:55.615Z,0.00
2018-12-05T02:25:55.627Z,0.00
2018-12-05T02:26:55.640Z,0.00
2018-12-05T02:27:55.656Z,0.00
2018-12-05T02:28:55.672Z,0.00
2018-12-05T02:29:55.681Z,0.00
2018-12-05T02:30:55.698Z,0.00
2018-12-05T02:31:55.713Z,0.00
2018-12-05T02:32:55.723Z,0.00
2018-12-05T02:33:55.740Z,0.00
2018-12-05T02:34:55.752Z,0.00
2018-12-05T02:35:55.767Z,0.00
2018-12-05T02:36:55.779Z,0.00
2018-12-05T02:37:55.795Z,0.00
2018-12-05T02:38:55.809Z,0.00
2018-12-05T02:39:55.822Z,0.00
2018-12-05T02:40:55.838Z,0.00
2018-12-05T02:41:55.849Z,0.00
2018-12-05T02:42:55.869Z,0.00
2018-12-05T02:43:55.879Z,0.00
2018-12-05T02:44:57.455Z,0.00
2018-12-05T02:45:55.909Z,0.00
2018-12-05T02:46:55.919Z,0.00
2018-12-05T02:47:55.940Z,0.00
2018-12-05T02:48:56.349Z,0.00
2018-12-05T02:49:55.961Z,0.00
2018-12-05T02:50:55.975Z,0.00
2018-12-05T02:51:55.987Z,0.00
2018-12-05T02:52:56.005Z,0.00
2018-12-05T02:53:56.021Z,0.00
2018-12-05T02:54:56.032Z,0.00
2018-12-05T02:55:56.043Z,0.00
2018-12-05T02:56:56.058Z,0.00
2018-12-05T02:57:56.079Z,0.00
2018-12-05T02:58:56.086Z,0.00
2018-12-05T02:59:56.101Z,0.00
2018-12-05T03:00:56.116Z,0.00
2018-12-05T03:01:56.130Z,0.00
2018-12-05T03:02:56.144Z,0.00
2018-12-05T03:03:56.156Z,0.00
2018-12-05T03:04:56.181Z,0.00
2018-12-05T03:05:56.186Z,0.00
2018-12-05T03:06:56.201Z,0.00
2018-12-05T03:07:56.212Z,0.00
2018-12-05T03:08:56.228Z,0.00
2018-12-05T03:09:56.240Z,0.00
2018-12-05T03:10:56.253Z,0.00
2018-12-05T03:11:56.269Z,0.00
2018-12-05T03:12:56.279Z,0.00
2018-12-05T03:13:56.293Z,0.00
2018-12-05T03:14:56.310Z,0.00
2018-12-05T03:15:56.321Z,0.00
2018-12-05T03:16:56.347Z,0.00
2018-12-05T03:17:56.351Z,0.00
2018-12-05T03:18:56.364Z,0.00
2018-12-05T03:19:56.375Z,0.00
2018-12-05T03:20:56.393Z,0.00
2018-12-05T03:21:56.476Z,0.00
2018-12-05T03:22:56.417Z,0.00
2018-12-05T03:23:56.434Z,0.00
2018-12-05T03:24:56.446Z,0.00
2018-12-05T03:25:56.459Z,0.00
2018-12-05T03:26:56.474Z,0.00
2018-12-05T03:27:56.485Z,0.00
2018-12-05T03:28:56.499Z,0.00
2018-12-05T03:29:56.515Z,0.00
2018-12-05T03:30:56.531Z,0.00
2018-12-05T03:31:56.541Z,0.00
2018-12-05T03:32:56.559Z,0.00
2018-12-05T03:33:56.567Z,0.00
2018-12-05T03:34:56.594Z,0.00
2018-12-05T03:35:56.594Z,0.00
2018-12-05T03:36:56.608Z,0.00
2018-12-05T03:37:56.621Z,0.00
2018-12-05T03:38:56.640Z,0.00
2018-12-05T03:39:56.651Z,0.00
2018-12-05T03:40:56.661Z,0.00
2018-12-05T03:41:56.678Z,0.00
2018-12-05T03:42:56.689Z,0.00
2018-12-05T03:43:56.703Z,0.00
2018-12-05T03:44:56.719Z,0.00
2018-12-05T03:45:56.730Z,0.00
2018-12-05T03:46:56.744Z,0.00
2018-12-05T03:47:56.757Z,0.00
2018-12-05T03:48:56.771Z,0.00
2018-12-05T03:49:56.785Z,0.00
2018-12-05T03:50:56.802Z,0.00
2018-12-05T03:51:56.820Z,0.00
2018-12-05T03:52:56.828Z,0.00
2018-12-05T03:53:56.841Z,0.00
2018-12-05T03:54:56.856Z,0.00
2018-12-05T03:55:56.870Z,0.00
2018-12-05T03:56:56.883Z,0.00
2018-12-05T03:57:56.897Z,0.00
2018-12-05T03:58:56.908Z,0.00
2018-12-05T03:59:56.921Z,0.00
2018-12-05T04:00:56.936Z,0.00
2018-12-05T04:01:56.949Z,0.00
2018-12-05T04:02:56.964Z,0.00
2018-12-05T04:03:56.978Z,0.00
2018-12-05T04:04:56.989Z,0.00
2018-12-05T04:05:57.007Z,0.00
2018-12-05T04:06:57.020Z,0.00
2018-12-05T04:07:57.034Z,0.00
2018-12-05T04:08:57.044Z,0.00
2018-12-05T04:09:57.058Z,0.00
2018-12-05T04:10:57.076Z,0.00
2018-12-05T04:11:57.085Z,0.00
2018-12-05T04:12:57.103Z,0.00
2018-12-05T04:13:57.114Z,0.00
2018-12-05T04:14:57.128Z,0.00
2018-12-05T04:15:57.140Z,0.00
2018-12-05T04:16:57.156Z,0.00
2018-12-05T04:17:57.176Z,0.00
2018-12-05T04:18:57.183Z,0.00
2018-12-05T04:19:57.199Z,0.00
2018-12-05T04:20:57.208Z,0.00
2018-12-05T04:21:57.222Z,0.00
2018-12-05T04:22:57.238Z,0.00
2018-12-05T04:23:57.249Z,0.00
2018-12-05T04:24:57.267Z,0.00
2018-12-05T04:25:57.277Z,0.00
2018-12-05T04:26:57.294Z,0.00
2018-12-05T04:27:57.305Z,0.00
2018-12-05T04:28:57.321Z,0.00
2018-12-05T04:29:57.331Z,0.00
2018-12-05T04:30:57.349Z,0.00
2018-12-05T04:31:57.363Z,0.00
2018-12-05T04:32:57.475Z,0.00
2018-12-05T04:33:57.389Z,0.00
2018-12-05T04:34:57.400Z,0.00
2018-12-05T04:35:57.416Z,0.00
2018-12-05T04:36:57.429Z,0.00
2018-12-05T04:37:57.444Z,0.00
2018-12-05T04:38:57.461Z,0.00
2018-12-05T04:39:57.469Z,0.00
2018-12-05T04:40:57.584Z,0.00
2018-12-05T04:41:57.513Z,0.00
2018-12-05T04:42:57.509Z,0.00
2018-12-05T04:43:57.522Z,0.00
2018-12-05T04:44:57.540Z,0.00
2018-12-05T04:45:57.553Z,0.00
2018-12-05T04:46:57.563Z,0.00
2018-12-05T04:47:57.579Z,0.00
2018-12-05T04:48:57.590Z,0.00
2018-12-05T04:49:57.607Z,0.00
2018-12-05T04:50:57.621Z,0.00
2018-12-05T04:51:57.630Z,0.00
2018-12-05T04:52:57.645Z,0.00
2018-12-05T04:53:57.659Z,0.00
2018-12-05T04:54:57.682Z,0.00
2018-12-05T04:55:57.688Z,0.00
2018-12-05T04:56:57.699Z,0.00
2018-12-05T04:57:57.716Z,0.00
2018-12-05T04:58:57.728Z,0.00
2018-12-05T04:59:57.739Z,0.00
2018-12-05T05:00:57.756Z,0.00
2018-12-05T05:01:57.767Z,0.00
2018-12-05T05:02:57.783Z,0.00
2018-12-05T05:03:57.793Z,0.00
2018-12-05T05:04:57.809Z,0.00
2018-12-05T05:05:57.821Z,0.00
2018-12-05T05:06:57.838Z,0.00
2018-12-05T05:07:57.849Z,0.00
2018-12-05T05:08:57.861Z,0.00
2018-12-05T05:09:57.877Z,0.00
2018-12-05T05:10:57.888Z,0.00
2018-12-05T05:11:57.901Z,0.00
2018-12-05T05:12:57.917Z,0.00
2018-12-05T05:13:57.931Z,0.00
2018-12-05T05:14:57.945Z,0.00
2018-12-05T05:15:57.956Z,0.00
2018-12-05T05:16:57.972Z,0.00
2018-12-05T05:17:57.985Z,0.00
2018-12-05T05:18:57.998Z,0.00
2018-12-05T05:19:58.008Z,0.00
2018-12-05T05:20:58.022Z,0.00
2018-12-05T05:21:58.041Z,0.00
2018-12-05T05:22:58.052Z,0.00
2018-12-05T05:23:58.068Z,0.00
2018-12-05T05:24:58.077Z,0.00
2018-12-05T05:25:58.090Z,0.00
2018-12-05T05:26:58.107Z,0.00
2018-12-05T05:27:58.116Z,0.00
2018-12-05T05:28:58.130Z,0.00
2018-12-05T05:29:58.144Z,0.00
2018-12-05T05:30:58.159Z,0.00
2018-12-05T05:31:58.169Z,0.00
2018-12-05T05:32:58.184Z,0.00
2018-12-05T05:33:58.197Z,0.00
2018-12-05T05:34:58.211Z,0.00
2018-12-05T05:35:58.230Z,0.00
2018-12-05T05:36:58.237Z,0.00
2018-12-05T05:37:58.251Z,0.00
2018-12-05T05:38:58.266Z,0.00
2018-12-05T05:39:58.279Z,0.00
2018-12-05T05:40:58.292Z,0.00
2018-12-05T05:41:58.304Z,0.00
2018-12-05T05:42:58.319Z,0.00
2018-12-05T05:43:58.335Z,0.00
2018-12-05T05:44:58.345Z,0.00
2018-12-05T05:45:58.359Z,0.00
2018-12-05T05:46:58.371Z,0.00
2018-12-05T05:47:58.383Z,0.00
2018-12-05T05:48:58.400Z,0.00
2018-12-05T05:49:58.411Z,0.00
2018-12-05T05:50:58.427Z,0.00
2018-12-05T05:51:58.439Z,0.00
2018-12-05T05:52:58.452Z,0.00
2018-12-05T05:53:58.466Z,0.00
2018-12-05T05:54:58.477Z,0.00
2018-12-05T05:55:58.493Z,0.00
2018-12-05T05:56:58.506Z,0.00
2018-12-05T05:57:58.520Z,0.00
2018-12-05T05:58:58.533Z,0.00
2018-12-05T05:59:58.544Z,0.00
2018-12-05T06:00:58.556Z,0.00
2018-12-05T06:01:58.570Z,0.00
2018-12-05T06:02:58.586Z,0.00
2018-12-05T06:03:58.600Z,0.00
2018-12-05T06:04:58.610Z,0.00
2018-12-05T06:05:58.624Z,0.00
2018-12-05T06:06:58.639Z,0.00
2018-12-05T06:07:58.649Z,0.00
2018-12-05T06:08:58.663Z,0.00
2018-12-05T06:09:58.679Z,0.00
2018-12-05T06:10:58.698Z,0.00
2018-12-05T06:11:58.705Z,0.00
2018-12-05T06:12:58.721Z,0.00
2018-12-05T06:13:58.732Z,0.00
2018-12-05T06:14:58.747Z,0.00
2018-12-05T06:15:58.757Z,0.00
2018-12-05T06:16:58.772Z,0.00
2018-12-05T06:17:58.785Z,0.00
2018-12-05T06:18:58.800Z,0.00
2018-12-05T06:19:58.812Z,0.00
2018-12-05T06:20:58.825Z,0.00
2018-12-05T06:21:58.838Z,0.00
2018-12-05T06:22:58.850Z,0.00
2018-12-05T06:23:58.863Z,0.00
2018-12-05T06:24:58.878Z,0.00
2018-12-05T06:25:58.893Z,0.00
2018-12-05T06:26:58.903Z,0.00
2018-12-05T06:27:58.919Z,0.00
2018-12-05T06:28:58.932Z,0.00
2018-12-05T06:29:58.943Z,0.00
2018-12-05T06:30:58.961Z,0.00
2018-12-05T06:31:58.975Z,0.00
2018-12-05T06:32:58.984Z,0.00
2018-12-05T06:33:58.997Z,0.00
2018-12-05T06:34:59.012Z,0.00
2018-12-05T06:35:59.022Z,0.00
2018-12-05T06:36:59.036Z,0.00
2018-12-05T06:37:59.052Z,0.00
2018-12-05T06:38:59.539Z,0.00
2018-12-05T06:39:59.075Z,0.00
2018-12-05T06:40:59.091Z,0.00
2018-12-05T06:41:59.106Z,0.00
2018-12-05T06:42:59.118Z,0.00
2018-12-05T06:43:59.129Z,0.00
2018-12-05T06:44:59.144Z,0.00
2018-12-05T06:45:59.156Z,0.00
2018-12-05T06:46:59.169Z,0.00
2018-12-05T06:47:59.182Z,0.00
2018-12-05T06:48:59.196Z,0.00
2018-12-05T06:49:59.213Z,0.00
2018-12-05T06:50:59.227Z,0.00
2018-12-05T06:51:59.236Z,0.00
2018-12-05T06:52:59.249Z,0.00
2018-12-05T06:53:59.265Z,0.00
2018-12-05T06:54:59.279Z,0.00
2018-12-05T06:55:59.292Z,0.00
2018-12-05T06:56:59.304Z,0.00
2018-12-05T06:57:59.319Z,0.00
2018-12-05T06:58:59.332Z,0.00
2018-12-05T06:59:59.345Z,0.00
2018-12-05T07:00:59.357Z,0.00
2018-12-05T07:01:59.370Z,0.00
2018-12-05T07:02:59.386Z,0.00
2018-12-05T07:03:59.398Z,0.00
2018-12-05T07:04:59.411Z,0.00
2018-12-05T07:05:59.424Z,0.00
2018-12-05T07:06:59.439Z,0.00
2018-12-05T07:07:59.452Z,0.00
2018-12-05T07:08:59.466Z,0.00
2018-12-05T07:09:59.480Z,0.00
2018-12-05T07:10:59.493Z,0.00
2018-12-05T07:11:59.513Z,0.00
2018-12-05T07:12:59.518Z,0.00
2018-12-05T07:13:59.535Z,0.00
2018-12-05T07:14:59.547Z,0.00
2018-12-05T07:15:59.560Z,0.00
2018-12-05T07:16:59.571Z,0.00
2018-12-05T07:17:59.585Z,0.00
2018-12-05T07:18:59.601Z,0.00
2018-12-05T07:19:59.614Z,0.00
2018-12-05T07:20:59.628Z,0.00
2018-12-05T07:21:59.638Z,0.00
2018-12-05T07:22:59.654Z,0.00
2018-12-05T07:23:59.665Z,0.00
2018-12-05T07:24:59.682Z,0.00
2018-12-05T07:25:59.692Z,5.63
2018-12-05T07:26:59.706Z,5.63
2018-12-05T07:27:59.721Z,5.63
2018-12-05T07:28:59.738Z,5.63
2018-12-05T07:29:59.747Z,5.63
2018-12-05T07:30:59.760Z,5.63
2018-12-05T07:31:59.774Z,5.63
2018-12-05T07:32:59.789Z,5.63
2018-12-05T07:33:59.803Z,5.63
2018-12-05T07:34:59.816Z,5.63
2018-12-05T07:35:59.830Z,5.63
2018-12-05T07:36:59.843Z,5.63
2018-12-05T07:37:59.854Z,5.63
2018-12-05T07:38:59.867Z,11.25
2018-12-05T07:39:59.882Z,11.25
2018-12-05T07:40:59.894Z,11.25
2018-12-05T07:41:59.910Z,11.25
2018-12-05T07:42:59.923Z,11.25
2018-12-05T07:43:59.935Z,11.25
2018-12-05T07:44:59.948Z,11.25
2018-12-05T07:45:59.965Z,11.25
2018-12-05T07:46:59.979Z,11.25
2018-12-05T07:47:59.988Z,11.25
2018-12-05T07:49:00.005Z,11.25
2018-12-05T07:50:00.018Z,11.25
2018-12-05T07:51:00.030Z,11.25
2018-12-05T07:52:00.045Z,11.25
2018-12-05T07:53:00.056Z,16.88
2018-12-05T07:54:00.074Z,16.88
2018-12-05T07:55:00.087Z,16.88
2018-12-05T07:56:00.097Z,16.88
2018-12-05T07:57:00.116Z,16.88
2018-12-05T07:58:00.128Z,16.88
2018-12-05T07:59:00.139Z,16.88
2018-12-05T08:00:00.153Z,16.88
2018-12-05T08:01:00.168Z,16.88
2018-12-05T08:02:00.432Z,16.88
2018-12-05T08:03:01.716Z,22.50
2018-12-05T08:04:00.206Z,22.50
2018-12-05T08:05:00.219Z,22.50
2018-12-05T08:06:00.233Z,22.50
2018-12-05T08:07:00.246Z,22.50
2018-12-05T08:08:00.259Z,22.50
2018-12-05T08:09:00.273Z,22.50
2018-12-05T08:10:00.289Z,28.13
2018-12-05T08:11:00.303Z,28.13
2018-12-05T08:12:00.316Z,28.13
2018-12-05T08:13:00.327Z,28.13
2018-12-05T08:14:00.341Z,28.13
2018-12-05T08:15:00.358Z,28.13
2018-12-05T08:16:00.369Z,28.13
2018-12-05T08:17:00.383Z,33.75
2018-12-05T08:18:00.397Z,33.75
2018-12-05T08:19:00.411Z,33.75
2018-12-05T08:20:00.427Z,33.75
2018-12-05T08:21:00.435Z,33.75
2018-12-05T08:22:00.452Z,39.38
2018-12-05T08:23:01.168Z,39.38
2018-12-05T08:24:00.477Z,39.38
2018-12-05T08:25:00.492Z,39.38
2018-12-05T08:26:00.507Z,39.38
2018-12-05T08:27:00.517Z,39.38
2018-12-05T08:28:00.630Z,39.38
2018-12-05T08:29:00.546Z,45.00
2018-12-05T08:30:00.571Z,45.00
2018-12-05T08:31:00.572Z,45.00
2018-12-05T08:32:00.588Z,39.38
2018-12-05T08:33:00.599Z,45.00
2018-12-05T08:34:00.615Z,45.00
2018-12-05T08:35:00.629Z,45.00
2018-12-05T08:36:00.640Z,45.00
2018-12-05T08:37:00.659Z,45.00
2018-12-05T08:38:00.876Z,45.00
2018-12-05T08:39:00.681Z,45.00
2018-12-05T08:40:00.694Z,45.00
2018-12-05T08:41:00.711Z,45.00
2018-12-05T08:42:00.722Z,45.00
2018-12-05T08:43:00.824Z,45.00
2018-12-05T08:44:00.768Z,45.00
2018-12-05T08:45:00.769Z,45.00
2018-12-05T08:46:00.780Z,45.00
2018-12-05T08:47:00.796Z,45.00
2018-12-05T08:48:00.848Z,45.00
2018-12-05T08:49:00.821Z,45.00
2018-12-05T08:50:00.835Z,45.00
2018-12-05T08:51:00.847Z,45.00
2018-12-05T08:52:00.867Z,45.00
2018-12-05T08:53:00.930Z,45.00
2018-12-05T08:54:00.890Z,50.63
2018-12-05T08:55:00.906Z,50.63
2018-12-05T08:56:00.917Z,50.63
2018-12-05T08:57:00.930Z,50.63
2018-12-05T08:58:00.948Z,50.63
2018-12-05T08:59:00.961Z,50.63
2018-12-05T09:00:00.972Z,50.63
2018-12-05T09:01:00.996Z,50.63
2018-12-05T09:02:01.002Z,50.63
2018-12-05T09:03:01.014Z,50.63
2018-12-05T09:04:01.032Z,50.63
2018-12-05T09:05:01.043Z,50.63
2018-12-05T09:06:01.058Z,50.63
2018-12-05T09:07:01.131Z,50.63
2018-12-05T09:08:01.088Z,50.63
2018-12-05T09:09:01.096Z,45.00
2018-12-05T09:10:01.114Z,45.00
2018-12-05T09:11:01.125Z,45.00
2018-12-05T09:12:01.141Z,45.00
2018-12-05T09:13:01.155Z,50.63
2018-12-05T09:14:01.170Z,50.63
2018-12-05T09:15:01.185Z,50.63
2018-12-05T09:16:01.197Z,50.63
2018-12-05T09:17:01.215Z,50.63
2018-12-05T09:18:01.223Z,56.25
2018-12-05T09:19:01.237Z,56.25
2018-12-05T09:20:01.251Z,56.25
2018-12-05T09:21:01.265Z,56.25
2018-12-05T09:22:01.380Z,56.25
2018-12-05T09:23:01.296Z,56.25
2018-12-05T09:24:01.309Z,56.25
2018-12-05T09:25:01.321Z,56.25
2018-12-05T09:26:01.338Z,56.25
2018-12-05T09:27:01.352Z,56.25
2018-12-05T09:28:01.365Z,56.25
2018-12-05T09:29:01.382Z,61.88
2018-12-05T09:30:01.397Z,61.88
2018-12-05T09:31:01.410Z,61.88
2018-12-05T09:32:01.419Z,61.88
2018-12-05T09:33:01.436Z,56.25
2018-12-05T09:34:01.451Z,56.25
2018-12-05T09:35:01.465Z,56.25
2018-12-05T09:36:01.476Z,56.25
2018-12-05T09:37:01.490Z,56.25
2018-12-05T09:38:01.508Z,56.25
2018-12-05T09:39:01.522Z,56.25
2018-12-05T09:40:01.533Z,56.25
2018-12-05T09:41:01.547Z,56.25
2018-12-05T09:42:01.562Z,56.25
2018-12-05T09:43:01.576Z,56.25
2018-12-05T09:44:01.592Z,56.25
2018-12-05T09:45:01.607Z,56.25
2018-12-05T09:46:01.619Z,56.25
2018-12-05T09:47:01.633Z,56.25
2018-12-05T09:48:01.647Z,61.88
2018-12-05T09:49:01.664Z,61.88
2018-12-05T09:50:01.678Z,61.88
2018-12-05T09:51:01.693Z,61.88
2018-12-05T09:52:01.707Z,61.88
2018-12-05T09:53:01.724Z,61.88
2018-12-05T09:54:01.735Z,61.88
2018-12-05T09:55:01.748Z,61.88
2018-12-05T09:56:01.761Z,67.50
2018-12-05T09:57:01.776Z,67.50
2018-12-05T09:58:01.796Z,67.50
2018-12-05T09:59:01.806Z,67.50
2018-12-05T10:00:01.821Z,73.13
2018-12-05T10:01:01.836Z,73.13
2018-12-05T10:02:01.851Z,78.75
2018-12-05T10:03:01.862Z,78.75
2018-12-05T10:04:01.876Z,73.13
2018-12-05T10:05:01.893Z,73.13
2018-12-05T10:06:01.908Z,67.50
2018-12-05T10:07:01.926Z,67.50
2018-12-05T10:08:01.933Z,67.50
2018-12-05T10:09:01.949Z,61.88
2018-12-05T10:10:01.969Z,61.88
2018-12-05T10:11:01.980Z,61.88
2018-12-05T10:12:01.994Z,61.88
2018-12-05T10:13:02.007Z,67.50
2018-12-05T10:14:02.020Z,67.50
2018-12-05T10:15:02.037Z,67.50
2018-12-05T10:16:02.051Z,67.50
2018-12-05T10:17:02.063Z,61.88
2018-12-05T10:18:02.078Z,61.88
2018-12-05T10:19:02.138Z,61.88
2018-12-05T10:20:02.108Z,61.88
2018-12-05T10:21:02.126Z,61.88
2018-12-05T10:22:02.136Z,61.88
2018-12-05T10:23:02.151Z,61.88
2018-12-05T10:24:02.167Z,61.88
2018-12-05T10:25:02.179Z,61.88
2018-12-05T10:26:02.194Z,61.88
2018-12-05T10:27:02.211Z,61.88
2018-12-05T10:28:02.226Z,61.88
2018-12-05T10:29:02.239Z,61.88
2018-12-05T10:30:02.254Z,61.88
2018-12-05T10:31:02.267Z,61.88
2018-12-05T10:32:02.283Z,61.88
2018-12-05T10:33:02.298Z,67.50
2018-12-05T10:34:02.311Z,67.50
2018-12-05T10:35:02.327Z,67.50
2018-12-05T10:36:02.341Z,61.88
2018-12-05T10:37:02.355Z,61.88
2018-12-05T10:38:02.370Z,61.88
2018-12-05T10:39:02.383Z,61.88
2018-12-05T10:40:02.399Z,61.88
2018-12-05T10:41:02.414Z,61.88
2018-12-05T10:42:02.428Z,61.88
2018-12-05T10:43:02.440Z,61.88
2018-12-05T10:44:02.454Z,67.50
2018-12-05T10:45:02.470Z,67.50
2018-12-05T10:46:02.487Z,67.50
2018-12-05T10:47:02.509Z,67.50
2018-12-05T10:48:02.515Z,67.50
2018-12-05T10:49:02.528Z,67.50
2018-12-05T10:50:02.543Z,67.50
2018-12-05T10:51:02.558Z,67.50
2018-12-05T10:52:02.574Z,67.50
2018-12-05T10:53:02.591Z,67.50
2018-12-05T10:54:02.604Z,67.50
2018-12-05T10:55:02.618Z,67.50
2018-12-05T10:56:02.638Z,67.50
2018-12-05T10:57:02.647Z,67.50
2018-12-05T10:58:02.663Z,67.50
2018-12-05T10:59:02.761Z,67.50
2018-12-05T11:00:02.708Z,67.50
2018-12-05T11:01:02.714Z,73.13
2018-12-05T11:02:02.724Z,73.13
2018-12-05T11:03:02.740Z,73.13
2018-12-05T11:04:02.750Z,73.13
2018-12-05T11:05:02.769Z,73.13
2018-12-05T11:06:02.783Z,73.13
2018-12-05T11:07:02.798Z,67.50
2018-12-05T11:08:02.809Z,67.50
2018-12-05T11:09:02.828Z,67.50
2018-12-05T11:10:02.848Z,67.50
2018-12-05T11:11:02.856Z,67.50
2018-12-05T11:12:02.875Z,67.50
2018-12-05T11:13:02.885Z,67.50
2018-12-05T11:14:02.902Z,67.50
2018-12-05T11:15:02.918Z,67.50
2018-12-05T11:16:02.930Z,67.50
2018-12-05T11:17:02.945Z,67.50
2018-12-05T11:18:02.975Z,67.50
2018-12-05T11:19:02.978Z,67.50
2018-12-05T11:20:02.993Z,67.50
2018-12-05T11:21:03.008Z,67.50
2018-12-05T11:22:03.025Z,73.13
2018-12-05T11:23:03.037Z,73.13
2018-12-05T11:24:03.054Z,73.13
2018-12-05T11:25:03.068Z,73.13
2018-12-05T11:26:03.085Z,73.13
2018-12-05T11:27:03.100Z,73.13
2018-12-05T11:28:03.167Z,73.13
2018-12-05T11:29:03.132Z,73.13
2018-12-05T11:30:03.148Z,73.13
2018-12-05T11:31:03.160Z,73.13
2018-12-05T11:32:03.174Z,73.13
2018-12-05T11:33:03.192Z,73.13
2018-12-05T11:34:03.456Z,73.13
2018-12-05T11:35:03.223Z,73.13
2018-12-05T11:36:03.236Z,73.13
2018-12-05T11:37:03.251Z,73.13
2018-12-05T11:38:03.269Z,73.13
2018-12-05T11:39:03.282Z,73.13
2018-12-05T11:40:03.298Z,73.13
2018-12-05T11:41:03.316Z,73.13
2018-12-05T11:42:03.331Z,73.13
2018-12-05T11:43:03.348Z,73.13
2018-12-05T11:44:03.364Z,73.13
2018-12-05T11:45:03.376Z,67.50
2018-12-05T11:46:03.391Z,67.50
2018-12-05T11:47:03.407Z,67.50
2018-12-05T11:48:03.425Z,67.50
2018-12-05T11:49:03.437Z,67.50
2018-12-05T11:50:03.455Z,67.50
2018-12-05T11:51:03.470Z,67.50
2018-12-05T11:52:03.484Z,67.50
2018-12-05T11:53:03.500Z,67.50
2018-12-05T11:54:03.520Z,61.88
2018-12-05T11:55:03.533Z,61.88
2018-12-05T11:56:03.547Z,61.88
2018-12-05T11:57:03.566Z,61.88
2018-12-05T11:58:03.577Z,61.88
2018-12-05T11:59:03.594Z,61.88
2018-12-05T12:00:03.608Z,61.88
2018-12-05T12:01:03.975Z,61.88
2018-12-05T12:02:03.645Z,56.25
2018-12-05T12:03:03.658Z,56.25
2018-12-05T12:04:03.671Z,56.25
2018-12-05T12:05:03.940Z,56.25
2018-12-05T12:06:03.708Z,56.25
2018-12-05T12:07:03.722Z,56.25
2018-12-05T12:08:03.736Z,56.25
2018-12-05T12:09:03.750Z,56.25
2018-12-05T12:10:03.766Z,56.25
2018-12-05T12:11:03.783Z,56.25
2018-12-05T12:12:03.800Z,56.25
2018-12-05T12:13:03.815Z,56.25
2018-12-05T12:14:03.831Z,56.25
2018-12-05T12:15:04.196Z,56.25
2018-12-05T12:16:03.866Z,56.25
2018-12-05T12:17:03.878Z,56.25
2018-12-05T12:18:03.892Z,56.25
2018-12-05T12:19:03.908Z,56.25
2018-12-05T12:20:03.929Z,56.25
2018-12-05T12:21:03.939Z,56.25
2018-12-05T12:22:03.956Z,56.25
2018-12-05T12:23:03.986Z,56.25
2018-12-05T12:24:03.991Z,56.25
2018-12-05T12:25:04.006Z,56.25
2018-12-05T12:26:04.019Z,56.25
2018-12-05T12:27:04.035Z,56.25
2018-12-05T12:28:04.054Z,56.25
2018-12-05T12:29:04.068Z,56.25
2018-12-05T12:30:04.083Z,56.25
2018-12-05T12:31:04.102Z,56.25
2018-12-05T12:32:04.117Z,56.25
2018-12-05T12:33:04.130Z,56.25
2018-12-05T12:34:04.148Z,56.25
2018-12-05T12:35:04.167Z,56.25
2018-12-05T12:36:04.177Z,56.25
2018-12-05T12:37:04.196Z,56.25
2018-12-05T12:38:04.209Z,56.25
2018-12-05T12:39:04.227Z,56.25
2018-12-05T12:40:04.247Z,56.25
2018-12-05T12:41:04.260Z,56.25
2018-12-05T12:42:04.428Z,56.25
2018-12-05T12:43:04.297Z,56.25
2018-12-05T12:44:04.305Z,56.25
2018-12-05T12:45:04.320Z,56.25
2018-12-05T12:46:04.337Z,50.63
2018-12-05T12:47:04.358Z,50.63
2018-12-05T12:48:04.368Z,50.63
2018-12-05T12:49:04.387Z,50.63
2018-12-05T12:50:04.401Z,50.63
2018-12-05T12:51:04.419Z,50.63
2018-12-05T12:52:04.434Z,50.63
2018-12-05T12:53:04.456Z,50.63
2018-12-05T12:54:04.465Z,50.63
2018-12-05T12:55:04.481Z,50.63
2018-12-05T12:56:04.496Z,50.63
2018-12-05T12:57:04.515Z,50.63
2018-12-05T12:58:04.529Z,50.63
2018-12-05T12:59:04.549Z,50.63
2018-12-05T13:00:04.663Z,56.25
2018-12-05T13:01:04.577Z,56.25
2018-12-05T13:02:04.594Z,56.25
2018-12-05T13:03:04.609Z,56.25
2018-12-05T13:04:04.828Z,56.25
2018-12-05T13:05:04.641Z,56.25
2018-12-05T13:06:04.658Z,56.25
2018-12-05T13:07:04.676Z,56.25
2018-12-05T13:08:04.691Z,56.25